Time;durP1;ratioP1;P1;durP2;ratioP2;P2;SDS_P1;SDS_P2;PMS_P1;PMS_P2;Temp;Humidity;BMP_temperature;BMP_pressure;BME280_temperature;BME280_humidity;BME280_pressure;Samples;Min_cycle;Max_cycle;Signal;HPM_P1;HPM_P2
2022/02/17 00:02:11;;;;;;;1.80;0.77;;;11.70;99.90;;;;;;5038072;28;20022;-72
2022/02/17 00:04:37;;;;;;;;;;;11.80;99.90;;;;;;5040113;28;20029;-72
2022/02/17 00:07:02;;;;;;;3.50;0.50;;;11.90;99.90;;;;;;5040690;28;19909;-72
2022/02/17 00:09:28;;;;;;;;;;;11.80;99.90;;;;;;5041115;28;20025;-72
2022/02/17 00:11:53;;;;;;;0.55;0.10;;;11.80;99.90;;;;;;5036901;28;20363;-72
2022/02/17 00:14:19;;;;;;;;;;;11.70;99.90;;;;;;5039472;28;20115;-72
2022/02/17 00:16:44;;;;;;;2.65;0.30;;;11.70;99.90;;;;;;5039297;28;20280;-73
2022/02/17 00:19:10;;;;;;;;;;;11.60;99.90;;;;;;5039363;28;20530;-72
2022/02/17 00:21:35;;;;;;;0.28;0.20;;;11.60;99.90;;;;;;5038862;28;19912;-72
2022/02/17 00:24:01;;;;;;;;;;;11.60;99.90;;;;;;5040402;28;20045;-72
2022/02/17 00:26:26;;;;;;;2.17;0.38;;;11.50;99.90;;;;;;5039482;28;19920;-72
2022/02/17 00:28:52;;;;;;;;;;;11.50;99.90;;;;;;5037489;28;20029;-72
2022/02/17 00:31:17;;;;;;;0.43;0.17;;;11.40;99.90;;;;;;5038081;28;19962;-71
2022/02/17 00:33:42;;;;;;;;;;;11.40;99.90;;;;;;5038674;28;20049;-71
2022/02/17 00:36:08;;;;;;;2.80;0.25;;;11.40;99.90;;;;;;5038985;28;20363;-72
2022/02/17 00:38:34;;;;;;;;;;;11.30;99.90;;;;;;5040365;28;20041;-72
2022/02/17 00:40:59;;;;;;;2.33;0.50;;;11.20;99.90;;;;;;5039210;28;19996;-71
2022/02/17 00:43:25;;;;;;;;;;;11.10;99.90;;;;;;5038393;28;20621;-71
2022/02/17 00:45:50;;;;;;;6.28;1.48;;;11.00;99.90;;;;;;5037426;28;19909;-72
2022/02/17 00:48:16;;;;;;;;;;;10.90;99.90;;;;;;5040267;28;20017;-72
2022/02/17 00:50:41;;;;;;;0.98;0.50;;;10.90;99.90;;;;;;5037986;28;20333;-72
2022/02/17 00:53:07;;;;;;;;;;;10.80;99.90;;;;;;5040020;28;20020;-71
2022/02/17 00:55:33;;;;;;;3.50;0.40;;;10.80;99.90;;;;;;5039270;28;20319;-71
2022/02/17 00:57:58;;;;;;;;;;;10.80;99.90;;;;;;5039776;28;20040;-71
2022/02/17 01:00:24;;;;;;;1.83;0.40;;;10.80;99.90;;;;;;5036240;28;19945;-71
2022/02/17 01:02:49;;;;;;;;;;;10.80;99.90;;;;;;5035790;28;20056;-71
2022/02/17 01:05:15;;;;;;;4.55;0.52;;;10.90;99.90;;;;;;5037400;28;19912;-71
2022/02/17 01:07:40;;;;;;;;;;;10.90;99.90;;;;;;5038503;28;20075;-71
2022/02/17 01:10:06;;;;;;;2.70;0.40;;;10.90;99.90;;;;;;5036969;28;19958;-71
2022/02/17 01:12:32;;;;;;;3.47;0.60;;;10.90;99.90;;;;;;5037553;28;20029;-71
2022/02/17 01:14:57;;;;;;;;;;;10.90;99.90;;;;;;5037526;28;20521;-71
2022/02/17 01:17:23;;;;;;;4.90;0.40;;;11.00;99.90;;;;;;5038426;28;20312;-71
2022/02/17 01:19:49;;;;;;;;;;;10.90;99.90;;;;;;5036554;28;20044;-71
2022/02/17 01:22:15;;;;;;;5.15;1.02;;;10.90;99.90;;;;;;5039853;28;19940;-71
2022/02/17 01:24:41;;;;;;;1.08;0.60;;;10.90;99.90;;;;;;5039641;28;20033;-71
2022/02/17 01:27:06;;;;;;;;;;;10.80;99.90;;;;;;5039567;28;20548;-71
2022/02/17 01:29:32;;;;;;;6.85;1.13;;;10.70;99.90;;;;;;5036956;28;20296;-71
2022/02/17 01:31:58;;;;;;;;;;;10.70;99.90;;;;;;5036767;28;20134;-71
2022/02/17 01:34:23;;;;;;;1.25;0.45;;;10.70;99.90;;;;;;5037749;28;19912;-71
2022/02/17 01:36:49;;;;;;;;;;;10.70;99.90;;;;;;5036748;28;20025;-71
2022/02/17 01:39:14;;;;;;;3.08;0.57;;;10.60;99.90;;;;;;5038119;28;19928;-71
2022/02/17 01:41:39;;;;;;;;;;;10.60;99.90;;;;;;5038207;28;20024;-71
2022/02/17 01:44:05;;;;;;;3.00;1.58;;;10.50;99.90;;;;;;5036393;28;20262;-71
2022/02/17 01:46:32;;;;;;;;;;;10.50;99.90;;;;;;5033972;28;20460;-70
2022/02/17 01:48:58;;;;;;;5.10;0.70;;;10.40;99.90;;;;;;5037926;28;19912;-70
2022/02/17 01:51:23;;;;;;;;;;;10.40;99.90;;;;;;5035903;28;20504;-70
2022/02/17 01:53:49;;;;;;;16.35;1.63;;;10.40;99.90;;;;;;5035801;28;19962;-70
2022/02/17 01:56:16;;;;;;;;;;;10.40;99.90;;;;;;5038481;28;20104;-70
2022/02/17 01:58:41;;;;;;;7.35;2.58;;;10.40;99.90;;;;;;5038045;28;19916;-70
2022/02/17 02:01:07;;;;;;;;;;;10.40;99.90;;;;;;5037025;28;20090;-71
2022/02/17 02:03:33;;;;;;;3.50;0.82;;;10.50;99.90;;;;;;5036665;28;19913;-71
2022/02/17 02:05:58;;;;;;;;;;;10.50;99.90;;;;;;5037674;28;20112;-71
2022/02/17 02:08:25;;;;;;;8.77;1.20;;;10.50;99.90;;;;;;5036972;28;19923;-70
2022/02/17 02:10:52;;;;;;;7.63;0.93;;;10.50;99.90;;;;;;5034784;28;20030;-71
2022/02/17 02:13:17;;;;;;;5.80;1.63;;;10.50;99.90;;;;;;5036873;28;20461;-70
2022/02/17 02:15:49;;;;;;;;;;;10.60;99.90;;;;;;5036312;28;20029;-70
2022/02/17 02:18:15;;;;;;;4.18;1.15;;;10.60;99.90;;;;;;5035297;28;20159;-70
2022/02/17 02:20:48;;;;;;;8.00;1.65;;;10.70;99.90;;;;;;5037880;28;20421;-71
2022/02/17 02:23:14;;;;;;;10.07;1.63;;;10.80;99.90;;;;;;5037773;28;20027;-70
2022/02/17 02:25:43;;;;;;;;;;;10.80;99.90;;;;;;5037396;28;20264;-70
2022/02/17 02:28:08;;;;;;;5.00;1.20;;;10.90;99.90;;;;;;5035702;28;19908;-71
2022/02/17 02:30:34;;;;;;;;;;;10.80;99.90;;;;;;5034058;28;20500;-71
2022/02/17 02:32:59;;;;;;;4.55;0.75;;;10.80;99.20;;;;;;5037644;28;19905;-71
2022/02/17 02:35:25;;;;;;;5.70;1.20;;;10.80;98.50;;;;;;5038156;28;20067;-71
2022/02/17 02:37:50;;;;;;;;;;;10.80;99.00;;;;;;5038096;28;20040;-71
2022/02/17 02:40:16;;;;;;;5.63;1.63;;;10.70;98.80;;;;;;5037026;28;19916;-70
2022/02/17 02:42:43;;;;;;;;;;;10.60;98.60;;;;;;5036157;28;20099;-71
2022/02/17 02:45:09;;;;;;;4.25;1.13;;;10.50;98.20;;;;;;5035110;28;20436;-71
2022/02/17 02:47:34;;;;;;;;;;;10.50;97.20;;;;;;5035682;28;20036;-70
2022/02/17 02:50:00;;;;;;;3.10;0.95;;;10.40;97.20;;;;;;5037841;28;19974;-71
2022/02/17 02:52:25;;;;;;;;;;;10.30;97.00;;;;;;5035705;28;20093;-71
2022/02/17 02:54:51;;;;;;;3.53;0.63;;;10.30;97.20;;;;;;5038255;28;19916;-70
2022/02/17 02:57:16;;;;;;;;;;;10.20;97.30;;;;;;5036920;28;20026;-71
2022/02/17 02:59:44;;;;;;;6.70;0.80;;;10.20;97.60;;;;;;5035069;28;19917;-70
2022/02/17 03:02:09;;;;;;;9.45;1.58;;;10.20;97.50;;;;;;5036544;28;20372;-70
2022/02/17 03:04:35;;;;;;;;;;;10.20;97.20;;;;;;5037402;28;20033;-70
2022/02/17 03:07:00;;;;;;;3.72;0.70;;;10.30;97.80;;;;;;5037150;28;19967;-70
2022/02/17 03:09:26;;;;;;;;;;;10.30;98.00;;;;;;5036908;28;20033;-71
2022/02/17 03:11:51;;;;;;;10.32;1.95;;;10.30;98.20;;;;;;5037008;28;20179;-70
2022/02/17 03:14:16;;;;;;;;;;;10.30;98.60;;;;;;5037790;28;20027;-70
2022/02/17 03:16:42;;;;;;;7.93;1.48;;;10.30;98.50;;;;;;5035957;28;20352;-70
2022/02/17 03:19:08;;;;;;;;;;;10.30;98.60;;;;;;5042063;28;20029;-70
2022/02/17 03:21:33;;;;;;;4.68;1.35;;;10.30;98.80;;;;;;5038936;28;19996;-70
2022/02/17 03:23:59;;;;;;;5.63;1.20;;;10.40;98.80;;;;;;5040659;28;20083;-70
2022/02/17 03:26:24;;;;;;;;;;;10.40;98.60;;;;;;5039082;28;20044;-70
2022/02/17 03:28:50;;;;;;;6.18;2.05;;;10.50;99.00;;;;;;5040885;28;19913;-71
2022/02/17 03:31:15;;;;;;;3.45;1.10;;;10.50;99.20;;;;;;5039352;28;20067;-71
2022/02/17 03:33:41;;;;;;;;;;;10.20;98.70;;;;;;5038609;28;20512;-70
2022/02/17 03:36:06;;;;;;;2.85;0.60;;;9.90;98.70;;;;;;5039300;28;20399;-71
2022/02/17 03:38:32;;;;;;;;;;;9.60;99.40;;;;;;5040533;28;20087;-71
2022/02/17 03:40:58;;;;;;;2.42;0.60;;;9.40;99.90;;;;;;5038761;28;20034;-70
2022/02/17 03:43:23;;;;;;;4.57;0.73;;;9.20;99.90;;;;;;5039425;28;20481;-71
2022/02/17 03:45:49;;;;;;;4.40;1.38;;;9.00;99.90;;;;;;5038157;28;20026;-71
2022/02/17 03:48:14;;;;;;;;;;;8.90;99.90;;;;;;5039890;28;20091;-70
2022/02/17 03:50:40;;;;;;;3.85;0.50;;;8.80;99.90;;;;;;5039046;28;19919;-71
2022/02/17 03:53:06;;;;;;;;;;;8.80;99.90;;;;;;5040683;28;20024;-70
2022/02/17 03:55:31;;;;;;;5.65;0.50;;;8.80;99.90;;;;;;5040619;28;20280;-70
2022/02/17 03:57:57;;;;;;;;;;;8.70;99.90;;;;;;5040075;28;20475;-71
2022/02/17 04:00:22;;;;;;;5.13;1.40;;;8.70;99.90;;;;;;5037706;28;19924;-71
2022/02/17 04:02:48;;;;;;;3.30;0.70;;;8.70;99.90;;;;;;5039536;28;20036;-71
2022/02/17 04:05:13;;;;;;;;;;;8.70;99.90;;;;;;5038112;28;20267;-71
2022/02/17 04:07:40;;;;;;;4.68;1.08;;;8.80;99.90;;;;;;5040627;28;19912;-71
2022/02/17 04:10:06;;;;;;;4.30;0.65;;;8.80;99.90;;;;;;5040278;28;20053;-71
2022/02/17 04:12:31;;;;;;;;;;;8.90;99.90;;;;;;5040596;28;20068;-71
2022/02/17 04:14:57;;;;;;;6.57;1.08;;;9.00;99.90;;;;;;5038916;28;19935;-71
2022/02/17 04:17:22;;;;;;;;;;;9.00;99.90;;;;;;5038711;28;20496;-70
2022/02/17 04:19:47;;;;;;;7.05;1.90;;;9.10;99.90;;;;;;5036497;28;19917;-70
2022/02/17 04:22:13;;;;;;;9.85;1.83;;;9.10;99.90;;;;;;5037890;28;20244;-70
2022/02/17 04:24:41;;;;;;;7.95;1.65;;;9.10;99.50;;;;;;5038479;28;20455;-70
2022/02/17 04:27:07;;;;;;;7.03;1.27;;;9.10;98.50;;;;;;5039351;28;20036;-70
2022/02/17 04:29:33;;;;;;;;;;;9.20;98.40;;;;;;5039455;28;20034;-70
2022/02/17 04:31:58;;;;;;;7.70;1.55;;;9.20;98.50;;;;;;5037791;28;19909;-71
2022/02/17 04:34:24;;;;;;;;;;;9.20;97.90;;;;;;5039645;28;20041;-70
2022/02/17 04:36:49;;;;;;;10.18;1.45;;;9.30;97.10;;;;;;5037838;28;19908;-71
2022/02/17 04:39:15;;;;;;;9.43;1.30;;;9.30;96.80;;;;;;5037598;28;20099;-71
2022/02/17 04:44:25;;;;;;;9.07;1.13;;;9.40;96.80;;;;;;5038585;28;20138;-71
2022/02/17 04:46:50;;;;;;;;;;;9.40;96.90;;;;;;5038339;28;20552;-71
2022/02/17 04:49:16;;;;;;;5.88;2.10;;;9.40;97.10;;;;;;5037987;28;19917;-71
2022/02/17 04:51:41;;;;;;;13.50;1.45;;;9.40;97.20;;;;;;5038532;28;20025;-71
2022/02/17 04:54:07;;;;;;;;;;;9.40;96.60;;;;;;5037297;28;20106;-71
2022/02/17 04:56:33;;;;;;;12.98;1.50;;;9.40;96.60;;;;;;5038002;28;19909;-71
2022/02/17 04:58:59;;;;;;;6.50;1.65;;;9.40;96.40;;;;;;5039311;28;20041;-71
2022/02/17 05:01:25;;;;;;;;;;;9.40;96.20;;;;;;5035740;28;20469;-71
2022/02/17 05:03:50;;;;;;;5.00;1.02;;;9.40;96.70;;;;;;5037245;28;19909;-71
2022/02/17 05:06:16;;;;;;;;;;;9.40;95.60;;;;;;5040051;28;20120;-71
2022/02/17 05:08:41;;;;;;;8.75;2.60;;;9.40;96.20;;;;;;5039038;28;19909;-71
2022/02/17 05:11:07;;;;;;;11.30;2.05;;;9.40;95.70;;;;;;5044393;22;20128;-67
2022/02/17 05:13:33;;;;;;;;;;;9.40;95.70;;;;;;5046975;28;20041;-68
2022/02/17 05:15:59;;;;;;;7.88;1.42;;;9.30;95.30;;;;;;5044230;28;19908;-67
2022/02/17 05:18:24;;;;;;;;;;;9.30;95.40;;;;;;5047758;28;20439;-68
2022/02/17 05:20:50;;;;;;;11.38;1.55;;;9.30;96.10;;;;;;5039383;28;19913;-67
2022/02/17 05:23:15;;;;;;;;;;;9.20;95.20;;;;;;5029386;28;20448;-67
2022/02/17 05:25:41;;;;;;;14.50;2.30;;;9.20;95.70;;;;;;5026194;28;20340;-67
2022/02/17 05:28:08;;;;;;;;;;;9.20;95.10;;;;;;5026396;28;20359;-67
2022/02/17 05:30:43;;;;;;;9.65;1.52;;;9.10;95.80;;;;;;5021550;28;20566;-71
2022/02/17 05:33:14;;;;;;;4.78;1.60;;;9.10;95.60;;;;;;5021491;28;20026;-70
2022/02/17 05:35:40;;;;;;;13.02;2.45;;;9.00;95.70;;;;;;5019866;28;20032;-67
2022/02/17 05:38:06;;;;;;;;;;;9.00;95.50;;;;;;5026547;28;20035;-68
2022/02/17 05:40:31;;;;;;;7.90;1.38;;;8.90;95.10;;;;;;5025515;28;19906;-68
2022/02/17 05:42:57;;;;;;;;;;;8.90;95.50;;;;;;5025555;28;20029;-68
2022/02/17 05:45:23;;;;;;;8.23;1.30;;;8.90;95.30;;;;;;5024015;28;19924;-68
2022/02/17 05:47:48;;;;;;;8.45;1.83;;;8.90;95.40;;;;;;5025195;28;20662;-67
2022/02/17 05:50:14;;;;;;;8.07;1.75;;;8.90;95.30;;;;;;5022554;28;20518;-68
2022/02/17 05:52:39;;;;;;;;;;;9.00;95.40;;;;;;5025960;28;20025;-68
2022/02/17 05:55:06;;;;;;;7.10;1.10;;;9.00;95.30;;;;;;5025360;28;19940;-67
2022/02/17 05:57:31;;;;;;;5.07;1.10;;;9.00;95.20;;;;;;5025436;28;20148;-69
2022/02/17 05:59:58;;;;;;;;;;;9.00;94.80;;;;;;5023159;28;20415;-69
2022/02/17 06:02:25;;;;;;;10.13;1.63;;;9.10;96.00;;;;;;5022314;28;20014;-68
2022/02/17 06:04:51;;;;;;;14.48;1.83;;;9.10;94.20;;;;;;5021204;28;20083;-68
2022/02/17 06:07:17;;;;;;;;;;;9.10;93.90;;;;;;5020388;28;20021;-69
2022/02/17 06:09:43;;;;;;;9.65;2.17;;;9.10;94.50;;;;;;5020903;28;19909;-67
2022/02/17 06:12:09;;;;;;;9.80;1.38;;;9.00;94.00;;;;;;5024438;28;20033;-67
2022/02/17 06:14:35;;;;;;;;;;;9.00;94.40;;;;;;5025345;28;20052;-67
2022/02/17 06:17:00;;;;;;;11.80;1.73;;;8.90;94.60;;;;;;5025126;28;19909;-67
2022/02/17 06:19:25;;;;;;;10.32;1.25;;;8.90;93.80;;;;;;5025657;28;20397;-67
2022/02/17 06:21:51;;;;;;;5.47;1.20;;;8.90;93.60;;;;;;5023752;28;20040;-67
2022/02/17 06:24:16;;;;;;;10.93;1.35;;;8.90;93.40;;;;;;5023900;28;20092;-67
2022/02/17 06:26:42;;;;;;;11.63;1.52;;;8.90;93.70;;;;;;5025531;28;20036;-67
2022/02/17 06:29:07;;;;;;;;;;;8.90;93.40;;;;;;5026711;28;20492;-67
2022/02/17 06:31:33;;;;;;;4.28;0.88;;;8.90;94.00;;;;;;5026353;28;19913;-67
2022/02/17 06:33:58;;;;;;;15.02;3.53;;;8.80;93.40;;;;;;5027562;28;20049;-67
2022/02/17 06:36:24;;;;;;;5.95;1.30;;;8.80;93.90;;;;;;5026620;28;20494;-67
2022/02/17 06:38:49;;;;;;;;;;;8.80;93.90;;;;;;5025710;28;20413;-67
2022/02/17 06:41:19;;;;;;;12.07;1.75;;;8.80;94.20;;;;;;5026277;28;19917;-67
2022/02/17 06:43:44;;;;;;;7.88;1.05;;;8.80;94.20;;;;;;5026494;28;20087;-67
2022/02/17 06:46:10;;;;;;;;;;;8.80;94.40;;;;;;5022161;28;20037;-68
2022/02/17 06:48:36;;;;;;;14.93;1.23;;;8.80;94.70;;;;;;5025681;28;19935;-69
2022/02/17 06:51:01;;;;;;;;;;;8.80;94.90;;;;;;5029668;28;20082;-69
2022/02/17 06:53:27;;;;;;;13.57;2.45;;;8.80;94.80;;;;;;5031510;28;19991;-69
2022/02/17 06:55:52;;;;;;;12.55;2.05;;;8.80;95.20;;;;;;5028716;28;20033;-69
2022/02/17 06:58:17;;;;;;;;;;;8.80;95.10;;;;;;5030443;28;20489;-68
2022/02/17 07:00:43;;;;;;;8.02;1.52;;;8.90;94.90;;;;;;5025402;28;19913;-68
2022/02/17 07:03:09;;;;;;;5.25;1.38;;;8.90;94.90;;;;;;5028167;28;20034;-71
2022/02/17 07:05:35;;;;;;;8.65;1.25;;;8.90;94.70;;;;;;5026726;28;20498;-70
2022/02/17 07:08:00;;;;;;;7.65;1.20;;;9.00;94.60;;;;;;5019319;28;20042;-68
2022/02/17 07:13:11;;;;;;;11.45;2.83;;;8.90;94.40;;;;;;5025473;28;19919;-67
2022/02/17 07:15:37;;;;;;;13.65;1.48;;;8.90;94.80;;;;;;5026821;28;20021;-67
2022/02/17 07:18:03;;;;;;;;;;;8.90;94.70;;;;;;5028343;28;20092;-67
2022/02/17 07:20:30;;;;;;;8.88;1.67;;;8.90;94.40;;;;;;5026577;28;19917;-67
2022/02/17 07:22:56;;;;;;;9.82;1.65;;;8.90;94.20;;;;;;5028450;28;20037;-68
2022/02/17 07:25:21;;;;;;;;;;;8.90;94.30;;;;;;5027541;28;20474;-67
2022/02/17 07:27:47;;;;;;;7.00;1.48;;;8.90;94.10;;;;;;5022748;28;19941;-67
2022/02/17 07:30:12;;;;;;;8.10;1.38;;;9.00;94.20;;;;;;5026006;28;20025;-68
2022/02/17 07:32:42;;;;;;;7.18;1.63;;;9.00;94.50;;;;;;5027715;28;20490;-68
2022/02/17 07:35:08;;;;;;;3.85;1.13;;;9.00;94.60;;;;;;5025573;28;20029;-68
2022/02/17 07:37:34;;;;;;;;;;;9.00;94.30;;;;;;5028728;28;20482;-70
2022/02/17 07:39:59;;;;;;;3.78;1.50;;;9.00;94.10;;;;;;5025359;28;19952;-70
2022/02/17 07:42:25;;;;;;;8.52;1.10;;;9.00;93.40;;;;;;5027175;28;20033;-69
2022/02/17 07:44:52;;;;;;;4.75;0.85;;;9.10;92.80;;;;;;5025139;28;20026;-70
2022/02/17 07:47:18;;;;;;;14.30;1.35;;;9.10;93.00;;;;;;5024990;28;20033;-68
2022/02/17 07:49:43;;;;;;;9.00;1.63;;;9.10;93.30;;;;;;5026013;28;20034;-68
2022/02/17 07:52:09;;;;;;;8.90;1.63;;;9.20;93.40;;;;;;5024570;28;20022;-69
2022/02/17 07:54:34;;;;;;;6.65;1.35;;;9.10;93.80;;;;;;5027470;28;20037;-69
2022/02/17 07:57:02;;;;;;;7.35;1.80;;;9.20;93.20;;;;;;5023821;28;20539;-69
2022/02/17 07:59:28;;;;;;;6.93;1.52;;;9.20;93.50;;;;;;5025951;28;20033;-69
2022/02/17 08:01:54;;;;;;;;;;;9.20;93.40;;;;;;5022869;28;20544;-69
2022/02/17 08:04:19;;;;;;;8.35;1.08;;;9.20;93.30;;;;;;5027505;28;20335;-69
2022/02/17 08:06:45;;;;;;;;;;;9.20;93.40;;;;;;5025208;28;20043;-69
2022/02/17 08:09:10;;;;;;;10.27;1.42;;;9.20;93.40;;;;;;5025901;28;19916;-70
2022/02/17 08:11:36;;;;;;;9.32;2.08;;;9.30;92.60;;;;;;5025277;28;20044;-71
2022/02/17 08:14:01;;;;;;;4.82;0.85;;;9.30;92.60;;;;;;5026698;28;20030;-67
2022/02/17 08:16:27;;;;;;;;;;;9.30;92.70;;;;;;5025219;28;20027;-68
2022/02/17 08:18:52;;;;;;;5.75;1.60;;;9.20;92.90;;;;;;5022953;28;20341;-68
2022/02/17 08:21:18;;;;;;;4.57;1.23;;;9.20;92.70;;;;;;5024458;28;20114;-67
2022/02/17 08:23:43;;;;;;;;;;;9.20;92.00;;;;;;5028197;28;20085;-67
2022/02/17 08:26:09;;;;;;;7.85;1.35;;;9.30;92.00;;;;;;5026066;28;20369;-67
2022/02/17 08:28:34;;;;;;;15.70;3.40;;;9.30;92.70;;;;;;5025828;28;20570;-68
2022/02/17 08:31:00;;;;;;;7.07;1.45;;;9.30;92.50;;;;;;5024007;28;20581;-68
2022/02/17 08:33:25;;;;;;;;;;;9.30;92.10;;;;;;5026625;28;20554;-68
2022/02/17 08:35:51;;;;;;;10.93;2.33;;;9.30;92.40;;;;;;5025315;28;19913;-67
2022/02/17 08:38:17;;;;;;;;;;;9.30;92.20;;;;;;5022947;28;20100;-69
2022/02/17 08:40:42;;;;;;;7.63;1.65;;;9.30;92.10;;;;;;5026040;28;19919;-70
2022/02/17 08:43:08;;;;;;;5.88;1.45;;;9.30;93.40;;;;;;5025719;28;20061;-68
2022/02/17 08:45:42;;;;;;;;;;;9.30;92.80;;;;;;5027395;28;20049;-68
2022/02/17 08:48:08;;;;;;;6.55;0.95;;;9.30;92.90;;;;;;5025217;28;19909;-68
2022/02/17 08:50:34;;;;;;;;;;;9.30;92.70;;;;;;5024356;28;20081;-69
2022/02/17 08:52:59;;;;;;;8.95;1.35;;;9.30;92.80;;;;;;5025003;28;19952;-70
2022/02/17 08:55:26;;;;;;;11.60;3.63;;;9.30;92.90;;;;;;5025811;28;20846;-70
2022/02/17 08:57:53;;;;;;;3.75;1.50;;;9.40;92.50;;;;;;5027339;28;20574;-70
2022/02/17 09:00:19;;;;;;;5.95;1.52;;;9.40;92.90;;;;;;5023776;28;20024;-69
2022/02/17 09:02:44;;;;;;;;;;;9.40;92.10;;;;;;5026960;28;20029;-68
2022/02/17 09:05:10;;;;;;;8.95;1.83;;;9.50;92.20;;;;;;5025235;28;19913;-71
2022/02/17 09:07:36;;;;;;;9.35;1.15;;;9.50;91.50;;;;;;5021909;28;20439;-68
2022/02/17 09:10:01;;;;;;;;;;;9.60;91.80;;;;;;5023727;28;20098;-69
2022/02/17 09:12:31;;;;;;;7.05;1.35;;;9.60;92.00;;;;;;5026274;28;19920;-69
2022/02/17 09:14:57;;;;;;;9.05;1.23;;;9.60;91.50;;;;;;5027553;28;20025;-69
2022/02/17 09:17:22;;;;;;;;;;;9.50;91.70;;;;;;5027666;28;20439;-69
2022/02/17 09:19:48;;;;;;;8.68;2.03;;;9.50;92.70;;;;;;5024970;28;20554;-67
2022/02/17 09:22:13;;;;;;;10.23;2.17;;;9.60;93.10;;;;;;5025022;28;20037;-67
2022/02/17 09:24:38;;;;;;;;;;;9.50;93.00;;;;;;5021634;28;20045;-68
2022/02/17 09:27:04;;;;;;;7.30;1.02;;;9.50;92.50;;;;;;5026451;28;19909;-68
2022/02/17 09:29:30;;;;;;;8.50;2.13;;;9.50;92.80;;;;;;5020237;28;20041;-71
2022/02/17 09:31:55;;;;;;;;;;;9.40;93.10;;;;;;5023639;28;20045;-70
2022/02/17 09:34:21;;;;;;;6.97;1.20;;;9.40;93.00;;;;;;5023851;28;20005;-70
2022/02/17 09:36:47;;;;;;;4.22;1.45;;;9.40;93.30;;;;;;5023353;28;20073;-69
2022/02/17 09:39:12;;;;;;;;;;;9.40;93.80;;;;;;5026398;28;20022;-70
2022/02/17 09:41:38;;;;;;;8.43;1.10;;;9.40;93.90;;;;;;5021141;28;19909;-69
2022/02/17 09:44:08;;;;;;;10.77;1.67;;;9.40;93.70;;;;;;5025767;28;20073;-69
2022/02/17 09:46:36;;;;;;;10.95;1.10;;;9.50;93.10;;;;;;5024523;28;20083;-69
2022/02/17 09:49:03;;;;;;;10.40;2.60;;;9.50;93.60;;;;;;5023845;28;20461;-70
2022/02/17 09:51:31;;;;;;;8.38;1.67;;;9.40;95.40;;;;;;5022554;28;20041;-71
2022/02/17 09:53:56;;;;;;;6.03;1.17;;;9.30;96.30;;;;;;5024419;28;20034;-71
2022/02/17 09:56:25;;;;;;;;;;;9.10;96.50;;;;;;5027647;28;20031;-71
2022/02/17 09:58:52;;;;;;;9.15;1.67;;;9.10;96.40;;;;;;5024616;28;19917;-71
2022/02/17 10:01:19;;;;;;;10.15;1.70;;;9.10;96.20;;;;;;5023990;28;20029;-70
2022/02/17 10:03:45;;;;;;;5.95;0.75;;;9.20;95.70;;;;;;5021903;28;21392;-67
2022/02/17 10:06:12;;;;;;;;;;;9.30;95.00;;;;;;5021114;28;20096;-68
2022/02/17 10:08:38;;;;;;;4.90;1.30;;;9.40;94.40;;;;;;5023869;28;19952;-69
2022/02/17 10:11:07;;;;;;;6.75;1.55;;;9.40;94.50;;;;;;5023861;28;20696;-69
2022/02/17 10:13:33;;;;;;;6.60;1.00;;;9.40;94.50;;;;;;5025313;28;20029;-69
2022/02/17 10:15:59;;;;;;;9.13;1.70;;;9.40;95.10;;;;;;5017091;28;20022;-68
2022/02/17 10:18:30;;;;;;;;;;;9.40;95.70;;;;;;5024914;28;20446;-68
2022/02/17 10:21:02;;;;;;;5.43;1.00;;;9.30;95.10;;;;;;5022678;28;19909;-68
2022/02/17 10:23:31;;;;;;;6.68;1.10;;;9.30;95.10;;;;;;5024866;28;20039;-68
2022/02/17 10:26:10;;;;;;;5.88;1.20;;;9.30;94.60;;;;;;5024992;28;20061;-70
2022/02/17 10:28:42;;;;;;;9.50;1.38;;;9.20;94.40;;;;;;5025628;28;20124;-69
2022/02/17 10:31:21;;;;;;;7.18;1.55;;;9.20;94.70;;;;;;5018641;28;20034;-69
2022/02/17 10:33:47;;;;;;;10.57;1.75;;;9.30;94.70;;;;;;5020645;28;20036;-69
2022/02/17 10:36:13;;;;;;;;;;;9.30;94.90;;;;;;5024116;28;20025;-70
2022/02/17 10:38:40;;;;;;;4.25;1.25;;;9.40;94.50;;;;;;5024221;28;19913;-71
2022/02/17 10:41:05;;;;;;;5.15;1.52;;;9.40;94.40;;;;;;5023396;28;20026;-70
2022/02/17 10:43:32;;;;;;;;;;;9.50;94.60;;;;;;5025169;28;20029;-69
2022/02/17 10:46:06;;;;;;;6.45;0.98;;;9.40;94.60;;;;;;5023569;28;20436;-69
2022/02/17 10:48:33;;;;;;;2.40;1.38;;;9.40;95.10;;;;;;5020819;28;20052;-69
2022/02/17 10:51:10;;;;;;;4.03;0.75;;;9.30;95.50;;;;;;5021620;28;20516;-69
2022/02/17 10:53:40;;;;;;;12.40;1.60;;;9.20;96.30;;;;;;5023258;28;20029;-69
2022/02/17 10:56:08;;;;;;;5.00;1.10;;;9.10;96.40;;;;;;5021828;28;20033;-69
2022/02/17 10:58:37;;;;;;;10.82;2.28;;;9.00;96.60;;;;;;5023006;28;20029;-70
2022/02/17 11:01:06;;;;;;;6.25;0.80;;;8.90;96.80;;;;;;5023473;28;20025;-70
2022/02/17 11:03:33;;;;;;;5.38;1.15;;;8.80;96.60;;;;;;5021166;28;20036;-68
2022/02/17 11:06:00;;;;;;;4.28;1.00;;;8.80;96.50;;;;;;5021650;28;20034;-68
2022/02/17 11:08:25;;;;;;;7.53;1.25;;;8.80;96.90;;;;;;5024243;28;20048;-68
2022/02/17 11:13:25;;;;;;;9.45;1.30;;;9.00;95.80;;;;;;5033835;28;20320;-80
2022/02/17 11:15:53;;;;;;;4.50;1.15;;;9.20;95.00;;;;;;5030673;28;20052;-77
2022/02/17 11:18:20;;;;;;;12.77;1.77;;;9.30;94.70;;;;;;5037255;28;20029;-77
2022/02/17 11:20:49;;;;;;;7.55;1.50;;;9.50;94.10;;;;;;5034585;28;20029;-77
2022/02/17 11:23:21;;;;;;;6.70;1.17;;;9.60;94.20;;;;;;5016871;28;20092;-79
2022/02/17 11:25:48;;;;;;;6.07;1.40;;;9.60;93.30;;;;;;5017814;28;20190;-77
2022/02/17 11:28:15;;;;;;;5.03;0.90;;;9.60;93.30;;;;;;5017328;28;20055;-79
2022/02/17 11:30:43;;;;;;;18.48;2.05;;;9.60;93.70;;;;;;5015267;28;20034;-77
2022/02/17 11:33:34;;;;;;;6.00;0.70;;;9.70;93.70;;;;;;5015118;28;20443;-78
2022/02/17 11:36:22;;;;;;;8.48;1.23;;;9.70;92.80;;;;;;5020304;28;20059;-77
2022/02/17 11:39:16;;;;;;;11.13;2.13;;;9.70;91.60;;;;;;5019803;28;20421;-78
2022/02/17 11:41:44;;;;;;;4.50;1.10;;;9.70;92.00;;;;;;5016132;28;20115;-77
2022/02/17 11:44:21;;;;;;;6.30;1.30;;;9.60;92.80;;;;;;5018478;28;20505;-76
2022/02/17 11:47:03;;;;;;;7.15;1.00;;;9.60;92.70;;;;;;5016628;28;20561;-75
2022/02/17 11:49:31;;;;;;;4.47;1.67;;;9.60;92.90;;;;;;5020009;28;20034;-75
2022/02/17 11:52:13;;;;;;;8.98;1.48;;;9.60;93.10;;;;;;5020191;28;20036;-75
2022/02/17 11:54:39;;;;;;;5.10;1.15;;;9.60;92.60;;;;;;5018146;28;20260;-75
2022/02/17 11:57:04;;;;;;;;;;;9.60;91.30;;;;;;5017546;28;20108;-75
2022/02/17 11:59:34;;;;;;;7.70;1.92;;;9.60;91.90;;;;;;5018274;28;20373;-76
2022/02/17 12:02:08;;;;;;;3.05;0.80;;;9.60;91.60;;;;;;5017244;28;20494;-74
2022/02/17 12:04:34;;;;;;;10.55;1.48;;;9.50;91.10;;;;;;5017933;28;20035;-74
2022/02/17 12:07:03;;;;;;;8.45;1.15;;;9.50;91.80;;;;;;5020181;28;20029;-75
2022/02/17 12:09:29;;;;;;;12.02;4.13;;;9.40;91.40;;;;;;5017522;28;20551;-72
2022/02/17 12:11:57;;;;;;;;;;;9.40;92.10;;;;;;5019621;28;20034;-72
2022/02/17 12:14:23;;;;;;;9.23;1.27;;;9.40;91.60;;;;;;5014706;28;19917;-72
2022/02/17 12:16:54;;;;;;;;;;;9.60;90.10;;;;;;5018805;28;20528;-78
2022/02/17 12:19:20;;;;;;;5.93;1.20;;;9.70;90.40;;;;;;5019487;28;20317;-77
2022/02/17 12:21:48;;;;;;;3.22;1.08;;;9.80;90.20;;;;;;5019369;28;20099;-77
2022/02/17 12:24:15;;;;;;;13.25;1.48;;;9.90;88.50;;;;;;5017952;28;20117;-75
2022/02/17 12:26:47;;;;;;;6.05;1.52;;;9.90;86.90;;;;;;5017810;28;20026;-76
2022/02/17 12:29:42;;;;;;;3.20;1.13;;;10.00;87.40;;;;;;5016631;28;20030;-77
2022/02/17 12:32:15;;;;;;;3.63;0.70;;;10.00;87.60;;;;;;5015357;28;20506;-76
2022/02/17 12:34:42;;;;;;;5.25;1.30;;;10.00;88.20;;;;;;5016074;28;20034;-76
2022/02/17 12:37:16;;;;;;;8.32;2.00;;;10.10;88.50;;;;;;5019987;28;20046;-73
2022/02/17 12:39:52;;;;;;;11.70;1.40;;;10.10;87.60;;;;;;5018979;28;20038;-72
2022/02/17 12:42:18;;;;;;;8.70;2.78;;;10.10;88.10;;;;;;5000429;28;20099;-72
2022/02/17 12:44:46;;;;;;;5.72;1.38;;;10.00;87.70;;;;;;5018472;28;20034;-76
2022/02/17 12:47:12;;;;;;;7.93;1.15;;;10.00;89.60;;;;;;5013247;28;20160;-73
2022/02/17 12:49:39;;;;;;;5.88;1.17;;;10.00;89.80;;;;;;5019562;28;20036;-72
2022/02/17 12:52:14;;;;;;;6.22;1.63;;;10.00;86.00;;;;;;5016852;28;20030;-74
2022/02/17 12:54:52;;;;;;;5.65;0.80;;;9.90;86.00;;;;;;5017158;28;20025;-74
2022/02/17 12:57:18;;;;;;;8.65;3.88;;;10.00;89.20;;;;;;5018578;28;20135;-73
2022/02/17 12:59:44;;;;;;;;;;;10.00;89.80;;;;;;5018585;28;20029;-70
2022/02/17 13:02:10;;;;;;;8.20;1.70;;;10.00;89.60;;;;;;5013193;28;19967;-73
2022/02/17 13:04:39;;;;;;;8.48;1.65;;;10.10;88.70;;;;;;5016746;28;20053;-74
2022/02/17 13:07:08;;;;;;;6.78;0.82;;;10.20;90.20;;;;;;5017839;28;20041;-74
2022/02/17 13:09:35;;;;;;;7.30;0.85;;;10.30;87.70;;;;;;5016717;28;20096;-75
2022/02/17 13:12:07;;;;;;;7.95;0.90;;;10.30;86.50;;;;;;5014702;28;20061;-73
2022/02/17 13:14:43;;;;;;;6.75;1.00;;;10.30;87.70;;;;;;5018513;28;20548;-72
2022/02/17 13:17:10;;;;;;;8.88;1.17;;;10.30;86.00;;;;;;5016529;28;20033;-72
2022/02/17 13:19:44;;;;;;;7.60;1.55;;;10.20;87.20;;;;;;5015037;28;20042;-77
2022/02/17 13:22:18;;;;;;;8.07;1.20;;;10.20;86.70;;;;;;5017517;28;20089;-75
2022/02/17 13:24:51;;;;;;;7.80;1.10;;;10.10;82.30;;;;;;5018330;28;20072;-72